Time;durP1;ratioP1;P1;durP2;ratioP2;P2;SDS_P1;SDS_P2;PMS_P1;PMS_P2;Temp;Humidity;BMP_temperature;BMP_pressure;BME280_temperature;BME280_humidity;BME280_pressure;Samples;Min_cycle;Max_cycle;Signal;HPM_P1;HPM_P2
2023/03/23 00:01:49;;;;;;;;;1.00;1.00;;;;;23.53;37.32;100009.78;5105268;27;45401;-69
2023/03/23 00:04:18;;;;;;;;;2.50;1.25;;;;;23.53;37.22;100023.97;5087082;27;69151;-69
2023/03/23 00:06:45;;;;;;;;;1.75;1.75;;;;;23.55;37.61;100022.03;5097289;27;68203;-69
2023/03/23 00:09:11;;;;;;;;;1.00;1.00;;;;;23.56;37.45;100033.56;5082851;27;45377;-69
2023/03/23 00:11:36;;;;;;;;;1.75;1.75;;;;;23.49;37.38;100019.91;5078401;27;45581;-69
2023/03/23 00:14:02;;;;;;;;;5.50;2.00;;;;;23.55;37.35;100032.72;5090956;27;68049;-69
2023/03/23 00:16:33;;;;;;;;;2.00;1.00;;;;;23.55;37.04;100029.19;5112937;27;45436;-69
2023/03/23 00:19:04;;;;;;;;;1.25;1.00;;;;;23.54;37.39;100017.66;5093309;27;46027;-69
2023/03/23 00:21:33;;;;;;;;;1.25;1.25;;;;;23.55;37.30;100018.50;5110197;27;45310;-69
2023/03/23 00:24:09;;;;;;;;;1.00;1.00;;;;;23.52;36.88;100014.31;5096262;27;45497;-69
2023/03/23 00:26:35;;;;;;;;;0.25;0.25;;;;;23.53;37.02;100007.13;5090467;27;45608;-69
2023/03/23 00:29:03;;;;;;;;;2.25;1.00;;;;;23.51;36.97;100004.59;5073826;27;45501;-69
2023/03/23 00:31:31;;;;;;;;;1.25;1.25;;;;;23.50;37.28;100005.59;5091260;27;45699;-69
2023/03/23 00:33:58;;;;;;;;;3.00;1.00;;;;;23.53;37.16;100009.78;5089584;27;45414;-69
2023/03/23 00:36:24;;;;;;;;;1.00;0.25;;;;;23.54;36.93;100019.50;5083837;27;47473;-69
2023/03/23 00:38:49;;;;;;;;;1.00;1.00;;;;;23.50;37.01;100001.09;5092380;27;45737;-69
2023/03/23 00:41:15;;;;;;;;;1.25;0.25;;;;;23.53;37.49;99994.59;5115561;27;65511;-69
2023/03/23 00:43:40;;;;;;;;;3.25;0.25;;;;;23.44;37.28;99991.00;5092947;27;45591;-69
2023/03/23 00:46:09;;;;;;;;;1.75;0.25;;;;;23.52;37.09;100011.63;5110778;27;68385;-69
2023/03/23 00:48:44;;;;;;;;;0.25;0.25;;;;;23.52;37.30;100013.47;5091653;27;45726;-69
2023/03/23 00:51:10;;;;;;;;;0.25;0.25;;;;;23.51;36.89;99999.25;5081727;27;45482;-69
2023/03/23 00:53:36;;;;;;;;;1.50;1.00;;;;;23.49;37.23;99996.72;5095490;27;45961;-69
2023/03/23 00:56:01;;;;;;;;;0.25;0.25;;;;;23.48;37.30;99991.53;5094719;27;48134;-69
2023/03/23 00:58:26;;;;;;;;;0.25;0.25;;;;;23.45;36.83;99992.66;5097696;27;72187;-69
2023/03/23 01:00:51;;;;;;;;;0.00;0.00;;;;;23.46;36.63;99999.69;5098116;27;45379;-69
2023/03/23 01:03:18;;;;;;;;;2.50;1.25;;;;;23.49;37.00;100006.56;5107083;27;67007;-69
2023/03/23 01:05:46;;;;;;;;;2.00;1.00;;;;;23.49;36.99;100009.22;5075502;27;47217;-70
2023/03/23 01:08:12;;;;;;;;;0.25;0.25;;;;;23.47;37.18;99996.03;5097294;27;45503;-69
2023/03/23 01:10:38;;;;;;;;;0.25;0.25;;;;;23.45;36.99;99989.97;5093381;27;45470;-69
2023/03/23 01:13:04;;;;;;;;;1.25;0.00;;;;;23.48;36.95;100003.06;5113351;27;45378;-69
2023/03/23 01:15:30;;;;;;;;;0.50;0.50;;;;;23.46;37.18;100009.50;5094024;27;45888;-69
2023/03/23 01:17:56;;;;;;;;;0.00;0.00;;;;;23.45;37.05;99998.00;5111505;27;45489;-69
2023/03/23 01:20:22;;;;;;;;;0.00;0.00;;;;;23.48;37.07;99986.19;5090552;27;45373;-69
2023/03/23 01:22:47;;;;;;;;;0.25;0.25;;;;;23.47;36.77;99992.50;5079902;27;45458;-69
2023/03/23 01:25:14;;;;;;;;;0.25;0.25;;;;;23.47;37.26;99987.19;5107630;27;74897;-69
2023/03/23 01:27:40;;;;;;;;;2.00;1.00;;;;;23.45;36.99;99995.31;5090419;27;45781;-69
2023/03/23 01:30:08;;;;;;;;;0.25;0.00;;;;;23.46;36.93;100006.84;5083265;27;45430;-69
2023/03/23 01:32:34;;;;;;;;;1.00;1.00;;;;;23.42;37.02;99992.09;5105677;27;45509;-69
2023/03/23 01:34:59;;;;;;;;;1.75;0.00;;;;;23.43;36.80;99991.97;5094456;27;45543;-70
2023/03/23 01:37:25;;;;;;;;;0.00;0.00;;;;;23.45;37.12;99986.47;5107411;27;46508;-69
2023/03/23 01:39:54;;;;;;;;;0.00;0.00;;;;;23.44;37.02;99974.09;5115769;27;45477;-70
2023/03/23 01:42:24;;;;;;;;;1.50;0.25;;;;;23.44;36.75;99972.28;5083654;27;45473;-69
2023/03/23 01:44:49;;;;;;;;;1.00;0.25;;;;;23.45;37.03;99973.13;5101243;27;46165;-70
2023/03/23 01:47:15;;;;;;;;;1.00;0.67;;;;;23.44;36.97;99968.75;5121433;27;45403;-70
2023/03/23 01:49:44;;;;;;;;;0.00;0.00;;;;;23.42;36.97;99963.56;5081374;27;45449;-70
2023/03/23 01:52:16;;;;;;;;;1.50;0.00;;;;;23.44;37.29;99952.75;5084904;27;45636;-70
2023/03/23 01:54:44;;;;;;;;;0.25;0.25;;;;;23.40;37.09;99946.00;5079398;27;48070;-70
2023/03/23 01:57:13;;;;;;;;;0.25;0.00;;;;;23.41;36.95;99937.00;5092985;27;45328;-70
2023/03/23 01:59:42;;;;;;;;;0.50;0.00;;;;;23.42;37.07;99936.84;5084110;27;45441;-70
2023/03/23 02:02:10;;;;;;;;;0.00;0.00;;;;;23.38;37.00;99927.47;5100056;27;45184;-70
2023/03/23 02:04:36;;;;;;;;;0.00;0.00;;;;;23.36;36.89;99915.25;5084825;27;48102;-70
2023/03/23 02:07:03;;;;;;;;;0.00;0.00;;;;;23.38;37.12;99921.28;5091894;27;53143;-70
2023/03/23 02:09:29;;;;;;;;;1.00;1.00;;;;;23.41;37.15;99935.19;5098692;27;45369;-70
2023/03/23 02:11:55;;;;;;;;;0.00;0.00;;;;;23.33;36.70;99929.72;5097542;27;45525;-70
2023/03/23 02:14:21;;;;;;;;;0.00;0.00;;;;;23.39;36.73;99938.97;5088848;27;45925;-70
2023/03/23 02:17:10;;;;;;;;;0.25;0.25;;;;;23.40;36.93;99962.88;5104309;27;45641;-70
2023/03/23 02:19:51;;;;;;;;;0.00;0.00;;;;;23.40;37.27;99967.38;5089818;27;45481;-70
2023/03/23 02:22:26;;;;;;;;;0.00;0.00;;;;;23.39;36.55;99979.88;5118329;27;45232;-70
2023/03/23 02:25:22;;;;;;;;;0.00;0.00;;;;;23.38;37.19;99986.19;5117024;27;46984;-68
2023/03/23 02:28:05;;;;;;;;;0.00;0.00;;;;;23.39;36.92;99989.72;5101595;27;45865;-69
2023/03/23 02:30:48;;;;;;;;;0.00;0.00;;;;;23.39;36.71;99989.72;5095582;27;45416;-69
2023/03/23 02:33:23;;;;;;;;;0.00;0.00;;;;;23.33;36.85;99982.28;5100584;27;45413;-70
2023/03/23 02:36:10;;;;;;;;;0.00;0.00;;;;;23.38;37.25;99986.19;5111400;27;46813;-70
2023/03/23 02:39:05;;;;;;;;;1.25;0.00;;;;;23.38;36.64;99991.53;5094807;27;45507;-70
2023/03/23 02:41:34;;;;;;;;;0.00;0.00;;;;;23.34;36.65;99989.28;5088968;27;45347;-70
2023/03/23 02:44:02;;;;;;;;;1.25;0.00;;;;;23.33;36.98;99980.44;5091992;27;45495;-70
2023/03/23 02:46:28;;;;;;;;;0.00;0.00;;;;;23.38;36.65;99993.38;5075862;27;46482;-70
2023/03/23 02:48:56;;;;;;;;;0.00;0.00;;;;;23.33;36.70;99983.13;5091495;27;45476;-69
2023/03/23 02:51:22;;;;;;;;;0.00;0.00;;;;;23.38;36.82;99983.53;5074475;27;45393;-69
2023/03/23 02:53:53;;;;;;;;;0.25;0.00;;;;;23.33;36.85;99969.75;5088365;27;45591;-69
2023/03/23 02:56:19;;;;;;;;;0.00;0.00;;;;;23.34;36.84;99966.13;5084459;27;45495;-69
2023/03/23 02:58:45;;;;;;;;;0.00;0.00;;;;;23.36;36.71;99976.66;5097993;27;45306;-69
2023/03/23 03:01:25;;;;;;;;;0.00;0.00;;;;;23.38;37.05;99977.34;5101039;27;45410;-69
2023/03/23 03:03:52;;;;;;;;;0.00;0.00;;;;;23.36;36.52;99963.31;5106048;27;45560;-69
2023/03/23 03:06:48;;;;;;;;;1.75;0.50;;;;;23.36;36.76;99971.31;5093243;27;45477;-70
2023/03/23 03:09:35;;;;;;;;;1.00;1.00;;;;;23.36;36.54;99965.97;5110735;27;45539;-70
2023/03/23 03:12:08;;;;;;;;;1.00;0.00;;;;;23.35;36.58;99965.13;5095227;27;45491;-70
2023/03/23 03:14:56;;;;;;;;;0.50;0.00;;;;;23.34;36.80;99939.41;5080090;27;45402;-69
2023/03/23 03:17:26;;;;;;;;;0.75;0.00;;;;;23.34;36.50;99944.75;5104270;27;45161;-70
2023/03/23 03:19:58;;;;;;;;;0.00;0.00;;;;;23.32;36.45;99954.75;5072200;27;45479;-69
2023/03/23 03:22:28;;;;;;;;;0.00;0.00;;;;;23.31;36.53;99955.72;5052832;27;1133314;-70
2023/03/23 03:24:56;;;;;;;;;0.00;0.00;;;;;23.33;36.76;99961.75;5094227;27;45481;-70
2023/03/23 03:27:23;;;;;;;;;0.00;0.00;;;;;23.29;36.46;99947.84;5097822;27;46466;-70
2023/03/23 03:29:53;;;;;;;;;0.00;0.00;;;;;23.29;36.88;99949.69;5094330;27;61002;-70
2023/03/23 03:32:22;;;;;;;;;0.00;0.00;;;;;23.30;36.81;99960.22;5094176;27;45347;-71
2023/03/23 03:34:50;;;;;;;;;0.00;0.00;;;;;23.31;36.90;99964.56;5097976;27;45818;-71
2023/03/23 03:37:16;;;;;;;;;0.00;0.00;;;;;23.31;36.62;99961.06;5110148;27;46011;-70
2023/03/23 03:39:45;;;;;;;;;0.00;0.00;;;;;23.30;36.59;99951.34;5096636;27;45430;-71
2023/03/23 03:42:10;;;;;;;;;0.00;0.00;;;;;23.33;36.45;99955.56;5085172;27;45474;-71
2023/03/23 03:44:35;;;;;;;;;0.00;0.00;;;;;23.30;36.83;99943.34;5113226;27;45436;-70
2023/03/23 03:47:01;;;;;;;;;0.00;0.00;;;;;23.31;36.99;99961.06;5074409;27;58460;-70
2023/03/23 03:49:26;;;;;;;;;0.00;0.00;;;;;23.30;36.82;99952.22;5103601;27;58165;-70
2023/03/23 03:51:52;;;;;;;;;0.00;0.00;;;;;23.28;36.93;99948.00;5096392;27;45492;-70
2023/03/23 03:54:17;;;;;;;;;0.00;0.00;;;;;23.28;37.05;99948.84;5089107;27;68876;-70
2023/03/23 03:56:43;;;;;;;;;0.00;0.00;;;;;23.29;36.72;99958.53;5096133;27;69010;-70
2023/03/23 03:59:09;;;;;;;;;0.00;0.00;;;;;23.29;36.68;99942.50;5091996;27;45186;-70
2023/03/23 04:01:35;;;;;;;;;1.00;0.00;;;;;23.31;36.39;99947.72;5105312;27;45413;-70
2023/03/23 04:04:01;;;;;;;;;0.00;0.00;;;;;23.27;37.09;99941.81;5092838;27;45252;-70
2023/03/23 04:06:27;;;;;;;;;0.25;0.00;;;;;23.29;36.70;99958.53;5089404;27;45431;-70
2023/03/23 04:08:55;;;;;;;;;0.00;0.00;;;;;23.28;36.55;99956.88;5115299;27;45301;-70
2023/03/23 04:11:20;;;;;;;;;0.00;0.00;;;;;23.30;36.69;99968.22;5102233;27;45605;-70
2023/03/23 04:13:46;;;;;;;;;0.00;0.00;;;;;23.28;36.85;99953.31;5094163;27;66847;-70
2023/03/23 04:16:11;;;;;;;;;1.25;0.25;;;;;23.28;36.43;99962.19;5097562;27;45716;-70
2023/03/23 04:18:36;;;;;;;;;0.00;0.00;;;;;23.29;36.70;99958.53;5117086;27;45557;-70
2023/03/23 04:21:03;;;;;;;;;0.75;0.00;;;;;23.29;36.72;99963.03;5083137;27;63273;-70
2023/03/23 04:23:31;;;;;;;;;0.00;0.00;;;;;23.30;36.74;99970.03;5092980;27;45303;-70
2023/03/23 04:25:57;;;;;;;;;0.00;0.00;;;;;23.27;36.53;99962.34;5099440;27;45714;-70
2023/03/23 04:28:24;;;;;;;;;0.25;0.25;;;;;23.29;36.78;99973.72;5098249;27;45655;-70
2023/03/23 04:30:53;;;;;;;;;0.00;0.00;;;;;23.29;36.94;99973.72;5090673;27;45434;-70
2023/03/23 04:33:21;;;;;;;;;0.00;0.00;;;;;23.28;36.67;99972.88;5095881;27;45390;-70
2023/03/23 04:35:47;;;;;;;;;0.00;0.00;;;;;23.28;36.69;99988.91;5104644;27;46235;-70
2023/03/23 04:38:16;;;;;;;;;0.00;0.00;;;;;23.26;36.87;99982.84;5094115;27;45473;-70
2023/03/23 04:40:43;;;;;;;;;0.00;0.00;;;;;23.27;36.98;99987.19;5096162;27;45507;-70
2023/03/23 04:43:12;;;;;;;;;0.00;0.00;;;;;23.24;36.95;99979.47;5091434;27;45520;-70
2023/03/23 04:45:41;;;;;;;;;0.25;0.25;;;;;23.27;36.86;99989.03;5098470;27;45707;-70
2023/03/23 04:48:07;;;;;;;;;0.00;0.00;;;;;23.25;37.00;99985.66;5089450;27;45381;-70
2023/03/23 04:50:32;;;;;;;;;0.00;0.00;;;;;23.23;36.90;99985.81;5096235;27;45319;-70
2023/03/23 04:53:03;;;;;;;;;0.00;0.00;;;;;23.26;36.53;99988.16;5115131;27;45504;-70
2023/03/23 04:55:29;;;;;;;;;0.00;0.00;;;;;23.26;36.64;99988.16;5096766;27;45583;-70
2023/03/23 04:57:56;;;;;;;;;0.00;0.00;;;;;23.23;36.82;99974.25;5113900;27;45460;-70
2023/03/23 05:00:21;;;;;;;;;0.00;0.00;;;;;23.24;36.81;99970.63;5094308;27;45896;-70
2023/03/23 05:02:51;;;;;;;;;0.50;0.25;;;;;23.25;36.87;99981.16;5107869;27;45217;-70
2023/03/23 05:05:17;;;;;;;;;0.00;0.00;;;;;23.25;36.89;99985.66;5080445;27;47856;-69
2023/03/23 05:07:42;;;;;;;;;0.00;0.00;;;;;23.26;36.62;99980.16;5100080;27;45565;-70
2023/03/23 05:10:12;;;;;;;;;0.25;0.00;;;;;23.25;36.62;99983.84;5111664;27;45315;-70
2023/03/23 05:12:39;;;;;;;;;1.25;0.00;;;;;23.22;36.53;99976.09;5116587;27;45223;-70
2023/03/23 05:15:05;;;;;;;;;0.25;0.25;;;;;23.24;36.75;99979.47;5090185;27;45552;-70
2023/03/23 05:17:32;;;;;;;;;1.00;0.00;;;;;23.24;36.67;99984.81;5093333;27;45899;-70
2023/03/23 05:19:58;;;;;;;;;0.00;0.00;;;;;23.23;36.83;99983.13;5097336;27;45536;-69
2023/03/23 05:22:26;;;;;;;;;0.50;0.25;;;;;23.24;36.56;99986.66;5104290;27;45493;-70
2023/03/23 05:24:51;;;;;;;;;0.25;0.00;;;;;23.23;36.75;99979.59;5086195;27;45565;-70
2023/03/23 05:27:18;;;;;;;;;0.00;0.00;;;;;23.22;36.80;99981.44;5082318;27;46029;-70
2023/03/23 05:29:45;;;;;;;;;0.25;0.00;;;;;23.24;36.99;99982.13;5093952;27;45494;-69
2023/03/23 05:32:11;;;;;;;;;2.00;0.00;;;;;23.25;36.78;99980.34;5094596;27;45444;-69
2023/03/23 05:34:36;;;;;;;;;0.00;0.00;;;;;23.22;36.75;99976.09;5077113;27;48306;-69
2023/03/23 05:37:03;;;;;;;;;0.00;0.00;;;;;23.23;36.76;99985.81;5109034;27;45365;-69
2023/03/23 05:39:29;;;;;;;;;0.00;0.00;;;;;23.23;37.09;99996.50;5094362;27;45460;-70
2023/03/23 05:41:54;;;;;;;;;1.25;0.00;;;;;23.23;36.89;99993.81;5096085;27;46662;-69
2023/03/23 05:44:20;;;;;;;;;1.75;0.00;;;;;23.23;36.62;99987.63;5107767;27;75601;-70
2023/03/23 05:46:46;;;;;;;;;0.00;0.00;;;;;23.23;36.44;99991.16;5105986;27;45321;-70
2023/03/23 05:49:11;;;;;;;;;0.25;0.25;;;;;23.20;36.52;99986.09;5075476;27;45581;-70
2023/03/23 05:51:36;;;;;;;;;1.50;0.75;;;;;23.19;36.88;99987.06;5095876;27;45412;-70
2023/03/23 05:54:03;;;;;;;;;1.75;0.00;;;;;23.22;36.91;99985.94;5110229;27;65505;-70
2023/03/23 05:56:30;;;;;;;;;0.00;0.00;;;;;23.18;36.95;99981.84;5085963;27;45383;-70
2023/03/23 05:58:55;;;;;;;;;0.00;0.00;;;;;23.22;36.87;99983.28;5112084;27;45487;-70
2023/03/23 06:01:20;;;;;;;;;2.25;0.00;;;;;23.19;37.15;99987.06;5105133;27;73600;-70
2023/03/23 06:03:46;;;;;;;;;0.00;0.00;;;;;23.19;37.04;99984.38;5073910;27;47079;-71
2023/03/23 06:06:12;;;;;;;;;0.00;0.00;;;;;23.16;36.47;99979.34;5082845;27;45813;-69
2023/03/23 06:08:38;;;;;;;;;0.00;0.00;;;;;23.15;36.73;99979.50;5099415;27;45405;-69
2023/03/23 06:11:04;;;;;;;;;0.00;0.00;;;;;23.22;36.84;99991.28;5089433;27;46090;-68
2023/03/23 06:13:29;;;;;;;;;0.00;0.00;;;;;23.20;36.92;99985.25;5095546;27;45629;-68
2023/03/23 06:15:58;;;;;;;;;0.00;0.00;;;;;23.21;37.12;99992.25;5079556;27;45879;-68
2023/03/23 06:18:24;;;;;;;;;0.50;0.00;;;;;23.23;36.79;100001.81;5096879;27;45451;-68
2023/03/23 06:20:50;;;;;;;;;0.00;0.00;;;;;23.24;36.63;100016.84;5083652;27;45284;-68
2023/03/23 06:23:16;;;;;;;;;0.00;0.00;;;;;23.26;37.14;100006.03;5099418;27;49059;-67
2023/03/23 06:25:42;;;;;;;;;0.00;0.00;;;;;23.27;37.66;100003.22;5088003;27;45312;-70
2023/03/23 06:28:09;;;;;;;;;2.00;0.00;;;;;23.25;37.37;100004.34;5097683;27;53946;-66
2023/03/23 06:30:43;;;;;;;;;0.00;0.00;;;;;23.22;37.69;100005.47;5095359;27;45437;-70
2023/03/23 06:33:09;;;;;;;;;0.00;0.00;;;;;23.20;37.88;99998.59;5103394;27;45503;-70
2023/03/23 06:35:47;;;;;;;;;0.00;0.00;;;;;23.19;37.52;99997.72;5114504;27;45547;-71
2023/03/23 06:38:13;;;;;;;;;1.00;0.00;;;;;23.19;37.70;100002.25;5094672;27;45669;-73
2023/03/23 06:40:46;;;;;;;;;0.00;0.00;;;;;23.20;37.30;100011.94;5090996;27;45320;-74
2023/03/23 06:43:12;;;;;;;;;0.00;0.00;;;;;22.99;37.78;99980.03;5094714;27;46989;-73
2023/03/23 06:45:38;;;;;;;;;1.50;0.00;;;;;;;;5085304;27;45790;-72
2023/03/23 06:48:03;;;;;;;;;1.25;0.00;;;;;23.18;37.67;100037.91;5101201;27;45215;-71
2023/03/23 06:50:28;;;;;;;;;0.50;0.25;;;;;23.18;37.60;100043.25;5115586;27;45692;-69
2023/03/23 06:52:54;;;;;;;;;0.00;0.00;;;;;23.13;37.75;100038.34;5104656;27;45222;-70
2023/03/23 06:55:19;;;;;;;;;1.25;0.00;;;;;23.12;37.84;100037.50;5111858;27;64892;-69
2023/03/23 06:57:44;;;;;;;;;0.00;0.00;;;;;23.13;37.54;100049.84;5110555;27;45549;-70
2023/03/23 07:00:13;;;;;;;;;2.00;1.00;;;;;23.14;37.75;100053.34;5104382;27;45291;-68
2023/03/23 07:02:42;;;;;;;;;2.00;1.00;;;;;23.16;37.46;100055.91;5120832;27;45337;-69
2023/03/23 07:05:09;;;;;;;;;0.75;0.75;;;;;23.15;38.10;100051.56;5088384;27;45327;-67
2023/03/23 07:07:36;;;;;;;;;0.25;0.25;;;;;23.17;37.98;100061.09;5073719;27;45281;-68
2023/03/23 07:10:06;;;;;;;;;1.00;1.00;;;;;23.17;37.92;100050.41;5073900;27;46465;-68
2023/03/23 07:12:32;;;;;;;;;1.25;0.25;;;;;23.23;38.14;100049.00;5094327;27;46194;-67
2023/03/23 07:14:58;;;;;;;;;1.50;1.50;;;;;23.24;38.27;100051.53;5097486;27;45344;-67
2023/03/23 07:17:23;;;;;;;;;0.00;0.00;;;;;23.25;38.12;100047.06;5087987;27;45292;-67
2023/03/23 07:19:49;;;;;;;;;1.00;1.00;;;;;23.35;37.78;100047.06;5094798;27;45812;-67
2023/03/23 07:22:14;;;;;;;;;1.00;1.00;;;;;23.35;38.21;100036.38;5093052;27;45868;-67
2023/03/23 07:24:40;;;;;;;;;0.25;0.25;;;;;23.42;38.08;100053.53;5103055;27;49942;-67
2023/03/23 07:27:05;;;;;;;;;0.25;0.25;;;;;23.45;37.75;100064.75;5094202;27;69351;-66
2023/03/23 07:29:34;;;;;;;;;0.00;0.00;;;;;23.46;37.88;100046.91;5084506;27;45454;-66
2023/03/23 07:32:00;;;;;;;;;1.50;1.00;;;;;23.53;37.86;100045.34;5094553;27;47231;-66
2023/03/23 07:34:25;;;;;;;;;1.75;1.75;;;;;23.56;38.19;100033.56;5090293;27;45537;-66
2023/03/23 07:36:50;;;;;;;;;2.00;0.25;;;;;23.56;38.06;100047.75;5105604;27;69248;-65
2023/03/23 07:39:16;;;;;;;;;1.00;1.00;;;;;23.63;38.06;100040.00;5100786;27;45525;-66
2023/03/23 07:41:41;;;;;;;;;2.00;2.00;;;;;23.65;37.99;100054.06;5114791;27;72609;-65
2023/03/23 07:44:06;;;;;;;;;2.00;2.00;;;;;23.67;38.08;100044.94;5080609;27;45494;-66
2023/03/23 07:46:32;;;;;;;;;3.00;1.00;;;;;23.77;37.95;100062.75;5107494;27;69208;-67
2023/03/23 07:48:58;;;;;;;;;5.00;1.25;;;;;23.77;38.13;100065.44;5108813;27;56304;-73
2023/03/23 07:51:24;;;;;;;;;3.25;0.75;;;;;23.82;38.25;100069.38;5081624;27;47527;-76
2023/03/23 07:53:51;;;;;;;;;1.75;0.25;;;;;23.86;38.18;100065.44;5101154;27;45813;-75
2023/03/23 07:56:19;;;;;;;;;1.00;1.00;;;;;23.94;38.27;100067.41;5072884;27;45470;-74
2023/03/23 07:58:45;;;;;;;;;1.25;0.25;;;;;23.95;37.94;100054.88;5092028;27;45706;-73
2023/03/23 08:01:12;;;;;;;;;1.25;1.25;;;;;24.00;38.16;100079.34;5101495;27;45489;-73
2023/03/23 08:03:37;;;;;;;;;1.00;1.00;;;;;24.08;38.08;100087.47;5099915;27;45291;-72
2023/03/23 08:06:04;;;;;;;;;0.75;0.25;;;;;24.10;38.13;100068.63;5095425;27;45445;-81
2023/03/23 08:08:30;;;;;;;;;1.00;0.25;;;;;24.09;37.97;100061.59;5093728;27;45582;-77
2023/03/23 08:10:55;;;;;;;;;2.00;1.00;;;;;24.10;37.59;100064.13;5089525;27;48044;-77
2023/03/23 08:13:20;;;;;;;;;0.25;0.25;;;;;24.18;37.73;100068.75;5079333;27;45423;-79
2023/03/23 08:15:46;;;;;;;;;2.50;0.25;;;;;24.16;37.72;100068.03;5105381;27;45441;-79
2023/03/23 08:18:11;;;;;;;;;2.75;1.75;;;;;24.20;37.43;100085.47;5072459;27;57033;-78
2023/03/23 08:20:37;;;;;;;;;1.75;0.25;;;;;24.17;37.65;100065.22;5100893;27;68904;-81
2023/03/23 08:23:03;;;;;;;;;2.00;0.25;;;;;24.23;37.45;100091.38;5072046;27;45311;-76
2023/03/23 08:25:31;;;;;;;;;2.25;1.00;;;;;24.24;37.44;100077.03;5084219;27;45798;-80
2023/03/23 08:27:57;;;;;;;;;0.50;0.50;;;;;24.25;37.62;100078.69;5116592;27;45394;-81
2023/03/23 08:30:24;;;;;;;;;0.50;0.50;;;;;24.24;37.36;100093.06;5109086;27;46207;-81
2023/03/23 08:32:50;;;;;;;;;0.25;0.25;;;;;24.24;37.67;100095.75;5094720;27;45474;-81
2023/03/23 08:35:17;;;;;;;;;5.00;1.00;;;;;24.25;37.52;100083.22;5098450;27;45550;-80
2023/03/23 08:37:42;;;;;;;;;2.00;2.00;;;;;24.25;37.68;100088.56;5094570;27;45521;-86
2023/03/23 08:40:10;;;;;;;;;1.75;1.75;;;;;24.24;37.65;100086.84;5100758;27;48151;-77
2023/03/23 08:42:37;;;;;;;;;2.25;1.25;;;;;24.21;37.60;100090.69;5090478;27;45425;-77
2023/03/23 08:45:07;;;;;;;;;0.25;0.25;;;;;24.24;37.60;100092.19;5101561;27;45447;-75
2023/03/23 08:47:36;;;;;;;;;0.50;0.25;;;;;24.23;37.30;100096.72;5098467;27;45354;-74
2023/03/23 08:50:06;;;;;;;;;1.75;0.75;;;;;24.22;37.53;100076.34;5101642;27;45636;-73
2023/03/23 08:52:31;;;;;;;;;3.25;2.00;;;;;24.22;37.67;100089.69;5098709;27;45499;-70
2023/03/23 08:54:57;;;;;;;;;0.00;0.00;;;;;24.20;37.73;100093.50;5105641;27;69319;-74
2023/03/23 08:57:24;;;;;;;;;1.25;1.25;;;;;24.17;37.94;100094.63;5102821;27;62560;-76
2023/03/23 08:59:49;;;;;;;;;5.00;1.50;;;;;24.11;37.76;100095.19;5113826;27;45428;-71
2023/03/23 09:02:16;;;;;;;;;3.25;1.50;;;;;24.13;37.95;100095.91;5082204;27;45364;-78
2023/03/23 09:04:42;;;;;;;;;3.75;1.25;;;;;24.13;37.83;100084.38;5091063;27;45304;-75
2023/03/23 09:07:12;;;;;;;;;2.75;1.00;;;;;24.10;37.93;100101.56;5083995;27;45293;-77
2023/03/23 09:09:39;;;;;;;;;0.25;0.25;;;;;24.09;38.21;100109.72;5087571;27;47168;-79
2023/03/23 09:12:06;;;;;;;;;3.25;0.25;;;;;24.09;38.36;100129.25;5090392;27;45819;-80
2023/03/23 09:14:31;;;;;;;;;2.50;1.00;;;;;24.07;38.36;100121.38;5091652;27;45555;-76
2023/03/23 09:16:57;;;;;;;;;5.50;2.00;;;;;24.07;38.44;100115.19;5089594;27;56528;-76
2023/03/23 09:19:22;;;;;;;;;2.00;0.75;;;;;24.07;38.54;100109.84;5073753;27;47408;-77
2023/03/23 09:21:47;;;;;;;;;2.50;1.75;;;;;24.05;38.21;100099.31;5105683;27;45365;-82
2023/03/23 09:24:13;;;;;;;;;0.75;0.25;;;;;23.99;38.43;100083.00;5092492;27;50626;-81
2023/03/23 09:26:43;;;;;;;;;1.00;1.00;;;;;24.07;38.12;100096.50;5097369;27;45365;-78
2023/03/23 09:29:08;;;;;;;;;0.50;0.25;;;;;24.15;38.40;100099.28;5085041;27;46831;-71
2023/03/23 09:31:36;;;;;;;;;1.50;1.00;;;;;24.10;38.39;100082.84;5112737;27;49426;-72
2023/03/23 09:34:03;;;;;;;;;1.75;1.75;;;;;24.13;38.31;100082.53;5092352;27;45334;-74
2023/03/23 09:36:30;;;;;;;;;0.50;0.50;;;;;24.18;38.25;100090.13;5099215;27;45414;-74
2023/03/23 09:38:57;;;;;;;;;0.75;0.25;;;;;24.17;38.26;100105.34;5093277;27;46578;-78
2023/03/23 09:41:55;;;;;;;;;1.00;1.00;;;;;24.15;38.47;100101.09;5088871;27;45503;-75
2023/03/23 09:44:36;;;;;;;;;1.25;1.25;;;;;24.22;38.56;100112.91;5107772;27;45498;-77
2023/03/23 09:47:14;;;;;;;;;1.75;1.75;;;;;24.24;38.44;100108.25;5106044;27;45216;-75
2023/03/23 09:49:51;;;;;;;;;0.00;0.00;;;;;24.25;38.42;100121.47;5101987;27;45454;-81
2023/03/23 09:52:18;;;;;;;;;2.50;1.25;;;;;24.30;38.45;100131.75;5085680;27;45751;-74
2023/03/23 09:54:50;;;;;;;;;0.00;0.00;;;;;24.30;38.60;100120.22;5104023;27;45312;-75
2023/03/23 09:57:38;;;;;;;;;0.75;0.75;;;;;24.34;38.39;100126.94;5094024;27;45462;-71
2023/03/23 10:00:16;;;;;;;;;1.25;0.00;;;;;24.36;38.31;100117.78;5109060;27;45442;-73
2023/03/23 10:03:05;;;;;;;;;1.75;1.00;;;;;24.38;38.28;100110.47;5099092;27;45858;-72
2023/03/23 10:05:40;;;;;;;;;2.75;1.50;;;;;24.39;38.31;100101.44;5105204;27;45439;-72
2023/03/23 10:08:13;;;;;;;;;2.75;0.25;;;;;24.39;38.29;100098.78;5078124;27;45625;-74
2023/03/23 10:11:04;;;;;;;;;1.75;0.25;;;;;24.41;38.08;100088.75;5112576;27;45481;-78
2023/03/23 10:13:39;;;;;;;;;2.50;1.25;;;;;24.43;38.11;100083.28;5094559;27;45363;-82
2023/03/23 10:16:17;;;;;;;;;1.00;1.00;;;;;24.41;37.98;100075.41;5090048;27;45324;-73
2023/03/23 10:19:22;;;;;;;;;1.00;0.00;;;;;24.43;38.10;100080.59;5097841;27;45489;-75
2023/03/23 10:21:52;;;;;;;;;3.00;0.25;;;;;24.47;37.94;100092.72;5117380;27;45564;-75
2023/03/23 10:24:21;;;;;;;;;0.75;0.75;;;;;24.48;38.14;100094.38;5098659;27;45431;-74
2023/03/23 10:27:01;;;;;;;;;4.00;2.00;;;;;24.50;37.88;100102.25;5106999;27;45302;-75
2023/03/23 10:29:36;;;;;;;;;3.75;1.00;;;;;24.50;38.03;100095.06;5123418;27;45252;-78
2023/03/23 10:32:17;;;;;;;;;3.25;0.25;;;;;24.52;37.77;100082.38;5096825;27;45908;-79
2023/03/23 10:34:47;;;;;;;;;2.25;1.50;;;;;24.53;38.20;100065.38;5097491;27;45372;-78
2023/03/23 10:37:44;;;;;;;;;0.00;0.00;;;;;24.57;37.80;100095.34;5097322;27;45192;-76
2023/03/23 10:40:17;;;;;;;;;3.25;0.25;;;;;24.57;37.56;100104.22;5087371;27;45588;-78
2023/03/23 10:42:42;;;;;;;;;0.25;0.25;;;;;24.57;37.45;100108.72;5102660;27;45311;-77
2023/03/23 10:45:19;;;;;;;;;1.00;0.75;;;;;24.58;37.82;100091.72;5097698;27;45269;-77
2023/03/23 10:47:50;;;;;;;;;4.25;0.50;;;;;24.52;37.53;100085.06;5095054;27;45372;-83
2023/03/23 10:50:22;;;;;;;;;1.25;1.00;;;;;24.57;37.60;100098.88;5094189;27;45482;-77
2023/03/23 10:52:50;;;;;;;;;1.50;0.25;;;;;24.66;37.82;100115.88;5091841;27;45449;-80
2023/03/23 10:55:23;;;;;;;;;1.25;1.25;;;;;24.63;37.49;100098.28;5112440;27;45655;-79
2023/03/23 10:58:03;;;;;;;;;1.25;1.00;;;;;24.68;37.71;100097.00;5106095;27;45522;-79
2023/03/23 11:00:30;;;;;;;;;1.00;0.00;;;;;24.71;37.52;100097.53;5092012;27;45406;-82
2023/03/23 11:02:58;;;;;;;;;1.00;0.75;;;;;24.76;37.52;100102.47;5090309;27;47250;-78
2023/03/23 11:05:32;;;;;;;;;1.25;1.25;;;;;24.76;37.52;100097.09;5122458;27;45392;-73
2023/03/23 11:07:59;;;;;;;;;1.75;0.25;;;;;24.77;37.31;100099.63;5091893;27;45532;-77
2023/03/23 11:10:28;;;;;;;;;3.00;0.25;;;;;24.77;37.15;100096.97;5105867;27;45393;-77
2023/03/23 11:12:57;;;;;;;;;1.25;0.75;;;;;24.83;37.45;100098.19;5106825;27;46493;-75
2023/03/23 11:15:27;;;;;;;;;3.00;1.00;;;;;24.83;37.30;100104.38;5116415;27;45563;-76
2023/03/23 11:17:58;;;;;;;;;2.50;0.50;;;;;24.86;37.28;100105.06;5096035;27;45659;-82
2023/03/23 11:20:26;;;;;;;;;3.25;1.25;;;;;24.86;37.23;100103.25;5085104;27;45502;-81
2023/03/23 11:22:52;;;;;;;;;3.00;2.25;;;;;24.87;37.34;100104.91;5099294;27;46954;-77
2023/03/23 11:25:17;;;;;;;;;1.75;1.00;;;;;24.89;37.50;100110.13;5094825;27;45377;-81
2023/03/23 11:27:43;;;;;;;;;0.50;0.50;;;;;24.88;37.36;100092.38;5101815;27;45380;-76
2023/03/23 11:30:19;;;;;;;;;1.75;1.00;;;;;24.92;37.19;100104.47;5080126;27;45292;-80
2023/03/23 11:32:45;;;;;;;;;1.00;1.00;;;;;24.90;37.39;100103.78;5085794;27;45686;-77
2023/03/23 11:35:22;;;;;;;;;0.50;0.25;;;;;24.93;36.92;100101.66;5115903;27;62452;-75
2023/03/23 11:37:52;;;;;;;;;1.00;1.00;;;;;24.91;37.31;100097.44;5086567;27;45510;-75